Time;durP1;ratioP1;P1;durP2;ratioP2;P2;SDS_P1;SDS_P2;PMS_P1;PMS_P2;Temp;Humidity;BMP_temperature;BMP_pressure;BME280_temperature;BME280_humidity;BME280_pressure;Samples;Min_cycle;Max_cycle;Signal;HPM_P1;HPM_P2
2021/11/20 00:01:11;;;;;;;19.58;14.38;;;12.20;99.90;;;;;;5126914;27;39009;-75
2021/11/20 00:03:39;;;;;;;24.67;16.65;;;12.10;99.90;;;;;;5119282;27;39554;-74
2021/11/20 00:06:06;;;;;;;19.23;14.85;;;12.10;99.90;;;;;;5140767;27;37567;-75
2021/11/20 00:08:32;;;;;;;23.23;18.20;;;12.10;99.90;;;;;;5137529;27;39972;-74
2021/11/20 00:11:02;;;;;;;24.75;17.38;;;12.10;99.90;;;;;;5137200;27;38028;-74
2021/11/20 00:13:29;;;;;;;23.65;17.00;;;12.10;99.90;;;;;;5133526;27;20047;-74
2021/11/20 00:15:58;;;;;;;22.58;16.48;;;12.10;99.90;;;;;;5129101;27;37300;-74
2021/11/20 00:18:25;;;;;;;24.20;17.33;;;12.10;99.90;;;;;;5128501;27;39154;-75
2021/11/20 00:20:56;;;;;;;27.15;17.08;;;12.10;99.90;;;;;;5135933;27;38488;-75
2021/11/20 00:23:32;;;;;;;23.88;18.38;;;12.20;99.90;;;;;;5129946;27;38718;-74
2021/11/20 00:25:59;;;;;;;25.98;18.80;;;12.20;99.90;;;;;;5131888;27;38092;-73
2021/11/20 00:28:40;;;;;;;27.27;17.70;;;12.10;99.90;;;;;;5134596;27;39496;-73
2021/11/20 00:31:13;;;;;;;27.80;18.85;;;12.10;99.90;;;;;;5128724;27;38583;-74
2021/11/20 00:33:40;;;;;;;27.33;19.08;;;12.10;99.90;;;;;;5135950;27;40517;-74
2021/11/20 00:36:07;;;;;;;23.67;17.85;;;12.10;99.90;;;;;;5134065;27;37307;-73
2021/11/20 00:38:36;;;;;;;27.00;19.08;;;12.10;99.90;;;;;;5145627;27;38831;-73
2021/11/20 00:41:17;;;;;;;25.45;19.52;;;12.10;99.90;;;;;;5153845;27;40163;-74
2021/11/20 00:43:45;;;;;;;32.25;21.80;;;12.10;99.90;;;;;;5119955;27;37378;-73
2021/11/20 00:46:14;;;;;;;25.45;19.13;;;12.10;99.90;;;;;;5123147;27;36411;-73
2021/11/20 00:48:42;;;;;;;27.52;20.83;;;12.10;99.90;;;;;;5129052;27;39800;-74
2021/11/20 00:51:10;;;;;;;26.50;19.85;;;12.10;99.90;;;;;;5160682;27;38913;-73
2021/11/20 00:53:37;;;;;;;27.35;19.10;;;12.10;99.90;;;;;;5144100;27;39769;-73
2021/11/20 00:56:05;;;;;;;26.90;20.42;;;12.10;99.90;;;;;;5129942;27;38662;-72
2021/11/20 00:58:32;;;;;;;27.63;20.77;;;12.10;99.90;;;;;;5136994;27;38099;-73
2021/11/20 01:01:02;;;;;;;28.85;18.58;;;12.10;99.90;;;;;;5156312;27;38744;-72
2021/11/20 01:03:29;;;;;;;26.83;19.58;;;12.10;99.90;;;;;;5152131;27;48711;-75
2021/11/20 01:05:58;;;;;;;25.57;20.47;;;12.10;99.90;;;;;;5156232;27;37543;-73
2021/11/20 01:08:27;;;;;;;25.05;19.85;;;12.00;99.90;;;;;;5157370;27;38482;-75
2021/11/20 01:11:03;;;;;;;27.88;20.38;;;12.10;99.90;;;;;;5162053;27;39056;-74
2021/11/20 01:13:29;;;;;;;26.33;19.38;;;12.10;99.90;;;;;;5136351;27;47033;-75
2021/11/20 01:15:59;;;;;;;31.58;22.02;;;12.00;99.90;;;;;;5158669;27;37419;-75
2021/11/20 01:18:27;;;;;;;30.40;20.65;;;12.00;99.90;;;;;;5137703;27;39234;-74
2021/11/20 01:20:54;;;;;;;26.67;20.40;;;12.00;99.90;;;;;;5117929;27;38679;-75
2021/11/20 01:23:28;;;;;;;27.80;21.38;;;12.00;99.90;;;;;;5127553;27;38973;-75
2021/11/20 01:25:54;;;;;;;27.40;20.33;;;12.00;99.90;;;;;;5135730;27;39160;-75
2021/11/20 01:28:23;;;;;;;24.65;17.90;;;12.00;99.90;;;;;;5142917;27;38896;-74
2021/11/20 01:30:50;;;;;;;25.55;19.73;;;12.00;99.90;;;;;;5121425;27;39093;-75
2021/11/20 01:33:18;;;;;;;29.65;21.23;;;12.00;99.90;;;;;;5128755;27;40145;-75
2021/11/20 01:35:45;;;;;;;26.40;19.88;;;12.00;99.90;;;;;;5134329;27;37477;-75
2021/11/20 01:38:12;;;;;;;27.20;19.90;;;12.00;99.90;;;;;;5138192;27;39791;-74
2021/11/20 01:40:42;;;;;;;30.73;21.97;;;12.00;99.90;;;;;;5140650;27;38928;-74
2021/11/20 01:43:09;;;;;;;28.33;19.67;;;12.00;99.90;;;;;;5142601;27;39108;-74
2021/11/20 01:45:49;;;;;;;27.30;21.17;;;12.00;99.90;;;;;;5136461;27;38057;-75
2021/11/20 01:48:40;;;;;;;28.60;20.27;;;12.00;99.90;;;;;;5136569;27;38962;-74
2021/11/20 01:51:26;;;;;;;33.70;22.83;;;12.00;99.90;;;;;;5138929;27;39349;-74
2021/11/20 01:54:13;;;;;;;31.88;20.60;;;12.00;99.90;;;;;;5138164;27;39218;-74
2021/11/20 01:57:06;;;;;;;28.25;19.65;;;12.00;99.90;;;;;;5132123;27;48643;-74
2021/11/20 01:59:36;;;;;;;;;;;11.90;99.90;;;;;;5125044;27;47096;-75
2021/11/20 02:02:15;;;;;;;29.42;19.50;;;12.00;99.90;;;;;;5146040;27;39451;-74
2021/11/20 02:04:53;;;;;;;31.08;20.75;;;12.00;99.90;;;;;;5124262;27;41090;-74
2021/11/20 02:07:34;;;;;;;30.83;20.40;;;12.00;99.90;;;;;;5120057;27;37809;-72
2021/11/20 02:10:05;;;;;;;29.38;20.25;;;12.00;99.90;;;;;;5144266;27;41050;-75
2021/11/20 02:12:46;;;;;;;26.90;18.80;;;12.00;99.90;;;;;;5134504;27;48728;-75
2021/11/20 02:15:18;;;;;;;32.03;22.58;;;11.90;99.90;;;;;;5134191;27;39062;-75
2021/11/20 02:17:53;;;;;;;30.40;20.60;;;12.00;99.90;;;;;;5130269;27;36209;-75
2021/11/20 02:20:43;;;;;;;30.33;20.58;;;12.00;99.90;;;;;;5132193;27;40782;-74
2021/11/20 02:23:09;;;;;;;29.98;20.33;;;12.00;99.90;;;;;;5123519;27;39758;-74
2021/11/20 02:25:35;;;;;;;27.15;20.23;;;12.00;99.90;;;;;;5132308;27;38416;-74
2021/11/20 02:28:03;;;;;;;29.77;20.38;;;12.00;99.90;;;;;;5118420;27;38482;-73
2021/11/20 02:30:43;;;;;;;29.25;20.95;;;12.00;99.90;;;;;;5150651;27;37385;-74
2021/11/20 02:33:17;;;;;;;28.63;20.27;;;12.00;99.90;;;;;;5141681;27;38748;-73
2021/11/20 02:35:50;;;;;;;29.98;19.98;;;12.00;99.90;;;;;;5138601;27;38617;-73
2021/11/20 02:38:36;;;;;;;27.15;18.45;;;12.00;99.90;;;;;;5142689;27;38416;-73
2021/11/20 02:41:04;;;;;;;35.17;22.73;;;12.00;99.90;;;;;;5138363;27;39599;-74
2021/11/20 02:43:34;;;;;;;27.25;20.10;;;12.00;99.90;;;;;;5140687;27;40192;-73
2021/11/20 02:46:01;;;;;;;27.60;19.40;;;12.10;99.90;;;;;;5131805;27;38213;-75
2021/11/20 02:48:27;;;;;;;30.40;21.00;;;12.00;99.90;;;;;;5136228;27;49012;-75
2021/11/20 02:51:19;;;;;;;27.83;19.95;;;12.00;99.90;;;;;;5134710;27;40686;-72
2021/11/20 02:53:49;;;;;;;27.77;19.33;;;12.00;99.90;;;;;;5148110;27;47070;-73
2021/11/20 02:56:19;;;;;;;28.38;18.98;;;12.00;99.90;;;;;;5128795;27;39185;-72
2021/11/20 02:58:46;;;;;;;29.23;19.73;;;12.00;99.90;;;;;;5147333;27;38051;-74
2021/11/20 03:01:32;;;;;;;27.90;19.13;;;11.90;99.90;;;;;;5154324;27;38959;-73
2021/11/20 03:03:59;;;;;;;29.63;19.77;;;12.00;99.90;;;;;;5139533;27;39731;-73
2021/11/20 03:06:26;;;;;;;29.83;20.90;;;12.00;99.90;;;;;;5144580;27;38306;-74
2021/11/20 03:08:52;;;;;;;27.90;20.88;;;12.00;99.90;;;;;;5145518;27;39196;-73
2021/11/20 03:11:19;;;;;;;33.70;21.40;;;12.00;99.90;;;;;;5135960;27;40384;-73
2021/11/20 03:13:52;;;;;;;31.35;22.20;;;12.00;99.90;;;;;;5129487;27;39069;-74
2021/11/20 03:16:19;;;;;;;34.33;22.50;;;12.00;99.90;;;;;;5138069;27;38422;-74
2021/11/20 03:18:45;;;;;;;32.45;21.58;;;12.00;99.90;;;;;;5144985;27;38294;-74
2021/11/20 03:21:12;;;;;;;30.03;21.40;;;12.00;99.90;;;;;;5129279;27;40893;-74
2021/11/20 03:23:43;;;;;;;30.05;22.33;;;12.00;99.90;;;;;;5147134;27;39121;-73
2021/11/20 03:26:10;;;;;;;31.42;21.77;;;12.00;99.90;;;;;;5131633;27;39575;-74
2021/11/20 03:28:37;;;;;;;32.28;22.40;;;12.00;99.90;;;;;;5136448;27;37917;-73
2021/11/20 03:31:03;;;;;;;28.15;21.00;;;12.00;99.90;;;;;;5139459;27;40060;-73
2021/11/20 03:33:30;;;;;;;34.03;22.80;;;12.00;99.90;;;;;;5141460;27;40423;-72
2021/11/20 03:35:57;;;;;;;29.53;21.10;;;12.00;99.90;;;;;;5139213;27;38904;-73
2021/11/20 03:38:24;;;;;;;40.20;23.10;;;12.00;99.90;;;;;;5142102;27;37552;-73
2021/11/20 03:40:51;;;;;;;33.90;22.63;;;12.00;99.90;;;;;;5140775;27;38591;-73
2021/11/20 03:43:17;;;;;;;29.00;21.60;;;12.00;99.90;;;;;;5127457;27;40031;-73
2021/11/20 03:45:44;;;;;;;33.20;22.67;;;12.00;99.90;;;;;;5116290;27;40174;-72
2021/11/20 03:48:11;;;;;;;32.43;22.83;;;12.00;99.90;;;;;;5123808;27;37958;-73
2021/11/20 03:50:38;;;;;;;33.92;21.85;;;12.00;99.90;;;;;;5142771;27;38493;-73
2021/11/20 03:53:06;;;;;;;34.75;22.27;;;12.00;99.90;;;;;;5139927;27;38780;-73
2021/11/20 03:55:36;;;;;;;29.55;21.50;;;12.00;99.90;;;;;;5120582;27;37654;-73
2021/11/20 03:58:03;;;;;;;28.92;22.27;;;12.00;99.90;;;;;;5124503;27;38720;-73
2021/11/20 04:00:34;;;;;;;32.58;22.75;;;11.90;99.90;;;;;;5130154;27;38582;-73
2021/11/20 04:03:00;;;;;;;36.20;23.38;;;12.00;99.90;;;;;;5141824;27;39723;-73
2021/11/20 04:05:30;;;;;;;32.97;24.10;;;11.90;99.90;;;;;;5133776;27;48160;-74
2021/11/20 04:07:56;;;;;;;32.08;22.52;;;11.90;99.90;;;;;;5136033;27;37844;-73
2021/11/20 04:10:22;;;;;;;34.13;25.55;;;11.90;99.90;;;;;;5137534;27;39895;-73
2021/11/20 04:12:48;;;;;;;31.70;25.15;;;11.90;99.90;;;;;;5136534;27;38661;-73
2021/11/20 04:15:18;;;;;;;33.65;26.50;;;11.80;99.90;;;;;;5138659;27;39354;-75
2021/11/20 04:17:45;;;;;;;34.08;27.35;;;11.80;99.90;;;;;;5140548;27;38126;-73
2021/11/20 04:20:15;;;;;;;31.55;27.42;;;11.80;99.90;;;;;;5140475;27;37981;-74
2021/11/20 04:22:42;;;;;;;33.05;28.08;;;11.80;99.90;;;;;;5137895;27;40434;-74
2021/11/20 04:25:10;;;;;;;30.33;27.03;;;11.90;99.90;;;;;;5159847;27;37219;-73
2021/11/20 04:27:36;;;;;;;31.38;28.00;;;11.80;99.90;;;;;;5135865;27;38438;-73
2021/11/20 04:30:05;;;;;;;34.80;30.38;;;11.80;99.90;;;;;;5134695;27;38528;-75
2021/11/20 04:32:31;;;;;;;34.08;30.33;;;11.90;99.90;;;;;;5145826;27;38969;-73
2021/11/20 04:34:57;;;;;;;31.20;27.83;;;11.90;99.90;;;;;;5138362;27;37887;-73
2021/11/20 04:37:24;;;;;;;37.88;31.55;;;11.80;99.90;;;;;;5136567;27;36546;-73
2021/11/20 04:39:50;;;;;;;33.60;29.60;;;11.90;99.90;;;;;;5128496;27;37741;-74
2021/11/20 04:42:16;;;;;;;36.97;31.37;;;11.90;99.90;;;;;;5125032;27;37561;-74
2021/11/20 04:44:43;;;;;;;36.87;32.10;;;11.80;99.90;;;;;;5129279;27;38865;-75
2021/11/20 04:47:09;;;;;;;33.80;30.10;;;11.80;99.90;;;;;;5138330;27;36486;-73
2021/11/20 04:49:36;;;;;;;34.10;30.47;;;11.80;99.90;;;;;;5143400;27;38517;-75
2021/11/20 04:52:03;;;;;;;35.90;32.00;;;11.80;99.90;;;;;;5133841;27;40498;-74
2021/11/20 04:54:29;;;;;;;36.00;32.13;;;11.80;99.90;;;;;;5143612;27;37786;-74
2021/11/20 04:56:56;;;;;;;36.17;31.73;;;11.80;99.90;;;;;;5140175;27;36362;-73
2021/11/20 04:59:22;;;;;;;29.00;26.00;;;11.80;99.90;;;;;;5132475;27;39180;-74
2021/11/20 05:01:49;;;;;;;26.17;22.17;;;11.80;99.90;;;;;;5133271;27;38680;-74
2021/11/20 05:04:15;;;;;;;28.08;23.15;;;11.90;99.90;;;;;;5133999;27;41884;-73
2021/11/20 05:06:42;;;;;;;26.57;23.13;;;11.90;99.90;;;;;;5156485;27;36525;-74
2021/11/20 05:09:08;;;;;;;25.70;22.60;;;11.90;99.90;;;;;;5137570;27;39226;-73
2021/11/20 05:11:34;;;;;;;21.57;18.50;;;11.90;99.90;;;;;;5130744;27;38777;-73
2021/11/20 05:14:01;;;;;;;28.10;22.93;;;11.90;99.90;;;;;;5147780;27;39008;-74
2021/11/20 05:16:28;;;;;;;27.77;22.33;;;11.90;99.90;;;;;;5143012;27;48568;-73
2021/11/20 05:18:54;;;;;;;26.73;23.10;;;11.90;99.90;;;;;;5141034;27;39845;-75
2021/11/20 05:21:22;;;;;;;30.83;24.00;;;11.90;99.90;;;;;;5144424;27;39593;-74
2021/11/20 05:23:50;;;;;;;30.95;25.67;;;11.90;99.90;;;;;;5137620;27;38629;-75
2021/11/20 05:26:17;;;;;;;32.10;27.17;;;11.90;99.90;;;;;;5135307;27;36385;-75
2021/11/20 05:28:51;;;;;;;31.75;28.08;;;11.80;99.90;;;;;;5150257;27;39041;-75
2021/11/20 05:31:17;;;;;;;33.97;28.90;;;11.80;99.90;;;;;;5138335;27;38952;-76
2021/11/20 05:33:47;;;;;;;34.00;29.67;;;11.80;99.90;;;;;;5127412;27;39249;-75
2021/11/20 05:36:14;;;;;;;34.80;30.50;;;11.80;99.90;;;;;;5136929;27;37195;-75
2021/11/20 05:38:42;;;;;;;36.03;29.63;;;11.80;99.90;;;;;;5137662;27;39511;-75
2021/11/20 05:41:08;;;;;;;34.20;29.65;;;11.80;99.90;;;;;;5139420;27;39727;-75
2021/11/20 05:43:34;;;;;;;34.90;30.27;;;11.70;99.90;;;;;;5130053;27;38887;-75
2021/11/20 05:46:05;;;;;;;36.88;30.33;;;11.70;99.90;;;;;;5144467;27;37851;-75
2021/11/20 05:48:31;;;;;;;39.17;31.95;;;11.70;99.90;;;;;;5140506;27;48691;-75
2021/11/20 05:50:57;;;;;;;37.20;29.23;;;11.70;99.90;;;;;;5146144;27;38643;-74
2021/11/20 05:53:25;;;;;;;34.25;28.27;;;11.70;99.90;;;;;;5114092;27;39105;-75
2021/11/20 05:55:53;;;;;;;37.47;28.42;;;11.70;99.90;;;;;;5135315;27;38178;-73
2021/11/20 05:58:21;;;;;;;35.85;28.85;;;11.70;99.90;;;;;;5126380;27;39522;-74
2021/11/20 06:00:54;;;;;;;35.67;27.73;;;11.70;99.90;;;;;;5121888;27;40157;-74
2021/11/20 06:03:21;;;;;;;35.97;28.95;;;11.70;99.90;;;;;;5149379;27;40042;-75
2021/11/20 06:05:49;;;;;;;33.50;26.23;;;11.60;99.90;;;;;;5125686;27;38747;-75
2021/11/20 06:08:17;;;;;;;30.92;25.95;;;11.60;99.90;;;;;;5125194;27;38825;-75
2021/11/20 06:10:44;;;;;;;27.87;23.40;;;11.60;99.90;;;;;;5138279;27;39158;-75
2021/11/20 06:13:11;;;;;;;29.35;25.15;;;11.60;99.90;;;;;;5133599;27;39282;-75
2021/11/20 06:15:38;;;;;;;29.70;24.38;;;11.60;99.90;;;;;;5134902;27;37781;-73
2021/11/20 06:18:05;;;;;;;30.33;24.43;;;11.60;99.90;;;;;;5136636;27;38995;-73
2021/11/20 06:20:31;;;;;;;29.65;24.67;;;11.60;99.90;;;;;;5134102;27;39828;-75
2021/11/20 06:22:58;;;;;;;30.67;24.37;;;11.60;99.90;;;;;;5142759;27;38636;-73
2021/11/20 06:25:24;;;;;;;26.50;22.55;;;11.70;99.90;;;;;;5138341;27;39137;-73
2021/11/20 06:27:51;;;;;;;28.73;22.65;;;11.60;99.90;;;;;;5138577;27;39176;-73
2021/11/20 06:30:21;;;;;;;31.05;23.98;;;11.60;99.90;;;;;;5131172;27;39062;-73
2021/11/20 06:32:47;;;;;;;27.92;22.17;;;11.60;99.90;;;;;;5139239;27;38479;-75
2021/11/20 06:35:18;;;;;;;28.30;22.80;;;11.60;99.90;;;;;;5147979;27;37544;-75
2021/11/20 06:37:45;;;;;;;28.13;23.50;;;11.60;99.90;;;;;;5146224;27;39591;-75
2021/11/20 06:40:15;;;;;;;28.02;23.63;;;11.60;99.90;;;;;;5137101;27;40647;-73
2021/11/20 06:42:42;;;;;;;29.73;23.50;;;11.60;99.90;;;;;;5156052;27;38616;-73
2021/11/20 06:45:11;;;;;;;29.50;23.37;;;11.60;99.90;;;;;;5129221;27;39096;-75
2021/11/20 06:47:37;;;;;;;25.57;22.13;;;11.60;99.90;;;;;;5123975;27;40416;-75
2021/11/20 06:50:04;;;;;;;26.35;22.75;;;11.60;99.90;;;;;;5117655;27;38988;-75
2021/11/20 06:52:31;;;;;;;30.13;24.80;;;11.60;99.90;;;;;;5137557;27;48559;-75
2021/11/20 06:54:57;;;;;;;27.83;22.85;;;11.60;99.90;;;;;;5141252;27;38414;-74
2021/11/20 07:00:27;;;;;;;27.20;23.25;;;11.70;99.90;;;;;;5137650;27;40868;-75
2021/11/20 07:03:00;;;;;;;27.77;24.15;;;11.70;99.90;;;;;;5139771;27;39383;-75
2021/11/20 07:05:30;;;;;;;27.77;23.52;;;11.70;99.90;;;;;;5142278;27;47245;-75
2021/11/20 07:07:59;;;;;;;31.17;24.88;;;11.70;99.90;;;;;;5139594;27;38643;-76
2021/11/20 07:10:25;;;;;;;29.75;24.60;;;11.70;99.90;;;;;;5134973;27;38406;-73
2021/11/20 07:12:53;;;;;;;32.20;25.45;;;11.70;99.90;;;;;;5144093;27;37512;-76
2021/11/20 07:15:20;;;;;;;31.00;26.20;;;11.70;99.90;;;;;;5133312;27;37621;-75
2021/11/20 07:17:47;;;;;;;34.22;25.52;;;11.80;99.90;;;;;;5131878;27;40415;-75
2021/11/20 07:20:15;;;;;;;34.10;28.10;;;11.80;99.90;;;;;;5132687;27;39675;-75
2021/11/20 07:22:42;;;;;;;36.75;29.60;;;11.80;99.90;;;;;;5167595;27;38443;-75
2021/11/20 07:25:09;;;;;;;38.55;30.42;;;11.80;99.90;;;;;;5134582;27;38082;-75
2021/11/20 07:27:36;;;;;;;32.10;27.08;;;11.80;99.90;;;;;;5138973;27;38951;-75
2021/11/20 07:30:04;;;;;;;38.38;29.75;;;11.90;99.90;;;;;;5134353;27;38993;-73
2021/11/20 07:32:30;;;;;;;37.97;30.77;;;11.90;99.90;;;;;;5162836;27;39871;-74
2021/11/20 07:34:57;;;;;;;38.20;30.98;;;11.90;99.90;;;;;;5139569;27;39016;-73
2021/11/20 07:37:23;;;;;;;44.20;32.42;;;11.80;99.90;;;;;;5140286;27;39904;-73
2021/11/20 07:39:49;;;;;;;40.15;32.45;;;11.80;99.90;;;;;;5155023;27;38533;-75
2021/11/20 07:42:16;;;;;;;42.55;32.22;;;11.80;99.90;;;;;;5157820;27;39162;-75
2021/11/20 07:44:42;;;;;;;41.58;32.90;;;11.80;99.90;;;;;;5135392;27;38076;-76
2021/11/20 07:47:09;;;;;;;40.88;32.20;;;11.80;99.90;;;;;;5137820;27;37055;-75
2021/11/20 07:49:36;;;;;;;43.70;33.72;;;11.80;99.90;;;;;;5137986;27;39637;-75
2021/11/20 07:52:03;;;;;;;40.78;32.97;;;11.80;99.90;;;;;;5153526;27;39565;-75
2021/11/20 07:54:29;;;;;;;44.35;33.65;;;11.80;99.90;;;;;;5142027;27;38776;-75
2021/11/20 07:56:55;;;;;;;39.38;31.38;;;11.90;99.90;;;;;;5138148;27;40656;-75
2021/11/20 07:59:21;;;;;;;44.88;33.83;;;11.80;99.90;;;;;;5138521;27;41623;-75
2021/11/20 08:01:47;;;;;;;44.65;33.03;;;11.80;99.90;;;;;;5137002;27;38914;-75
2021/11/20 08:04:14;;;;;;;42.58;32.30;;;11.90;99.90;;;;;;5157605;27;37054;-75
2021/11/20 08:06:41;;;;;;;42.88;33.30;;;11.90;99.90;;;;;;5142056;27;39135;-74
2021/11/20 08:09:09;;;;;;;38.30;29.60;;;11.90;99.90;;;;;;5153113;27;39514;-74
2021/11/20 08:11:38;;;;;;;40.50;31.75;;;11.90;99.90;;;;;;5141169;27;38780;-75
2021/11/20 08:14:05;;;;;;;41.85;31.85;;;11.90;99.90;;;;;;5163507;27;37818;-74
2021/11/20 08:16:32;;;;;;;42.72;32.40;;;11.90;99.90;;;;;;5157252;27;38766;-74
2021/11/20 08:18:58;;;;;;;41.88;31.80;;;11.90;99.90;;;;;;5137873;27;39953;-75
2021/11/20 08:21:25;;;;;;;42.25;31.88;;;11.90;99.90;;;;;;5141250;27;40478;-75
2021/11/20 08:23:52;;;;;;;49.67;32.58;;;11.90;99.90;;;;;;5162767;27;38470;-75
2021/11/20 08:26:18;;;;;;;41.92;31.75;;;11.90;99.90;;;;;;5158596;27;38888;-74
2021/11/20 08:28:45;;;;;;;44.22;33.08;;;11.90;99.90;;;;;;5136384;27;39384;-75
2021/11/20 08:31:12;;;;;;;42.13;32.10;;;12.00;99.90;;;;;;5141005;27;39150;-75
2021/11/20 08:33:39;;;;;;;45.97;34.63;;;11.90;99.90;;;;;;5163551;27;38269;-72
2021/11/20 08:36:09;;;;;;;46.13;33.80;;;11.90;99.90;;;;;;5159225;27;38592;-75
2021/11/20 08:38:36;;;;;;;44.70;32.88;;;11.90;99.90;;;;;;5157382;27;39765;-74
2021/11/20 08:41:03;;;;;;;49.28;35.25;;;11.90;99.90;;;;;;5160955;27;40356;-73
2021/11/20 08:43:30;;;;;;;49.78;37.22;;;12.00;99.90;;;;;;5156446;27;38980;-73
2021/11/20 08:45:59;;;;;;;45.00;34.63;;;12.00;99.90;;;;;;5157766;27;38816;-73
2021/11/20 08:48:25;;;;;;;46.55;35.10;;;12.00;99.90;;;;;;5158475;27;39554;-75
2021/11/20 08:51:01;;;;;;;44.45;33.33;;;12.00;99.90;;;;;;5139456;27;40429;-73
2021/11/20 08:53:28;;;;;;;43.65;32.17;;;12.00;99.90;;;;;;5131981;27;47276;-73
2021/11/20 08:55:55;;;;;;;42.25;30.80;;;12.00;99.90;;;;;;5157144;27;38743;-73
2021/11/20 08:58:22;;;;;;;38.75;30.67;;;12.00;99.90;;;;;;5156319;27;39065;-74
2021/11/20 09:00:57;;;;;;;39.22;30.05;;;12.10;99.90;;;;;;5125259;27;39004;-73
2021/11/20 09:03:38;;;;;;;38.20;29.58;;;12.10;99.90;;;;;;5114053;27;38352;-74
2021/11/20 09:06:07;;;;;;;36.13;27.45;;;12.10;99.90;;;;;;5120667;27;40398;-74
2021/11/20 09:09:01;;;;;;;39.70;29.70;;;12.10;99.90;;;;;;5124026;27;38727;-74
2021/11/20 09:11:55;;;;;;;37.40;29.85;;;12.20;99.90;;;;;;5106960;27;46775;-74
2021/11/20 09:14:31;;;;;;;36.75;29.55;;;12.20;99.90;;;;;;5120504;27;37488;-74
2021/11/20 09:16:59;;;;;;;40.58;32.63;;;12.30;99.90;;;;;;5115155;27;39486;-74
2021/11/20 09:19:30;;;;;;;41.63;32.22;;;12.30;99.90;;;;;;5114815;27;39588;-73
2021/11/20 09:21:58;;;;;;;35.25;29.02;;;12.20;99.90;;;;;;5120955;27;39308;-73
2021/11/20 09:24:27;;;;;;;36.50;29.65;;;12.30;99.90;;;;;;5119981;27;38425;-75
2021/11/20 09:26:54;;;;;;;36.10;31.70;;;12.30;99.90;;;;;;5115881;27;39829;-73
2021/11/20 09:29:23;;;;;;;37.78;31.65;;;12.30;99.90;;;;;;5118123;27;38424;-72
2021/11/20 09:31:50;;;;;;;37.67;31.25;;;12.30;99.90;;;;;;5118981;27;38505;-74
2021/11/20 09:34:17;;;;;;;36.95;29.50;;;12.40;99.90;;;;;;5111996;27;39156;-73
2021/11/20 09:36:46;;;;;;;34.60;29.55;;;12.40;99.90;;;;;;5103659;27;39191;-72
2021/11/20 09:39:16;;;;;;;36.75;30.90;;;12.40;99.90;;;;;;5121361;27;38869;-74
2021/11/20 09:41:51;;;;;;;35.05;29.60;;;12.50;99.90;;;;;;5126106;27;39157;-73
2021/11/20 09:44:18;;;;;;;33.00;28.90;;;12.50;99.90;;;;;;5125623;27;38116;-73
2021/11/20 09:46:48;;;;;;;35.97;30.02;;;12.50;99.90;;;;;;5123291;27;39617;-72
2021/11/20 09:49:36;;;;;;;39.00;32.13;;;12.50;99.90;;;;;;5119252;27;39535;-73
2021/11/20 09:52:03;;;;;;;36.40;29.63;;;12.50;99.90;;;;;;5120135;27;39299;-73
2021/11/20 09:54:35;;;;;;;37.85;31.25;;;12.50;99.90;;;;;;5125415;27;36689;-74
2021/11/20 09:57:07;;;;;;;38.97;31.52;;;12.40;99.90;;;;;;5116206;27;40251;-73
2021/11/20 09:59:52;;;;;;;42.60;33.70;;;12.40;99.90;;;;;;5120562;27;40014;-73
2021/11/20 10:02:48;;;;;;;38.10;28.33;;;12.40;99.90;;;;;;5132760;27;39231;-73
2021/11/20 10:05:19;;;;;;;34.83;28.13;;;12.40;99.90;;;;;;5137043;27;38444;-73
2021/11/20 10:08:05;;;;;;;36.17;29.92;;;12.40;99.90;;;;;;5129973;27;39474;-73
2021/11/20 10:10:50;;;;;;;31.25;25.95;;;12.40;99.90;;;;;;5130930;27;46993;-73
2021/11/20 10:13:21;;;;;;;34.75;28.02;;;12.40;99.90;;;;;;5134128;27;39254;-75
2021/11/20 10:15:56;;;;;;;32.25;26.58;;;12.40;99.90;;;;;;5123084;27;38073;-73
2021/11/20 10:18:47;;;;;;;36.63;27.67;;;12.50;99.90;;;;;;5138828;27;39494;-73
2021/11/20 10:21:21;;;;;;;32.50;26.10;;;12.50;99.90;;;;;;5116149;27;40290;-74
2021/11/20 10:24:11;;;;;;;35.72;27.10;;;12.40;99.90;;;;;;5128435;27;39316;-73
2021/11/20 10:27:19;;;;;;;32.58;24.60;;;12.40;99.90;;;;;;5137153;27;48956;-74
2021/11/20 10:29:52;;;;;;;32.80;24.55;;;12.40;99.90;;;;;;5139843;27;48614;-75
2021/11/20 10:32:33;;;;;;;34.13;23.55;;;12.40;99.90;;;;;;5145897;27;39601;-74
2021/11/20 10:35:15;;;;;;;27.33;21.92;;;12.40;99.90;;;;;;5136796;27;39010;-74
2021/11/20 10:37:47;;;;;;;33.67;23.80;;;12.40;99.90;;;;;;5134678;27;47525;-74
2021/11/20 10:40:32;;;;;;;31.98;23.30;;;12.40;99.90;;;;;;5118031;27;38992;-74
2021/11/20 10:43:01;;;;;;;30.88;23.40;;;12.50;99.90;;;;;;5118542;27;40470;-74
2021/11/20 10:45:36;;;;;;;33.17;24.50;;;12.40;99.90;;;;;;5131668;27;48457;-74
2021/11/20 10:48:19;;;;;;;33.60;24.65;;;12.40;99.90;;;;;;5134566;27;38167;-73
2021/11/20 10:50:49;;;;;;;33.03;24.60;;;12.50;99.90;;;;;;5134974;27;39438;-73
2021/11/20 10:53:49;;;;;;;34.33;23.95;;;12.40;99.90;;;;;;5132866;27;40265;-74
2021/11/20 10:56:43;;;;;;;34.08;24.63;;;12.50;99.90;;;;;;5134699;27;38737;-73
2021/11/20 10:59:25;;;;;;;32.13;22.58;;;12.50;99.90;;;;;;5118449;27;38050;-74
2021/11/20 11:02:16;;;;;;;30.33;24.23;;;12.50;99.90;;;;;;5137640;27;38327;-73
2021/11/20 11:04:51;;;;;;;31.02;23.17;;;12.50;99.90;;;;;;5131698;27;48891;-74
2021/11/20 11:07:49;;;;;;;28.90;22.00;;;12.50;99.90;;;;;;5136383;27;39273;-73
2021/11/20 11:10:22;;;;;;;33.20;24.00;;;12.50;99.90;;;;;;5124126;27;36078;-74
2021/11/20 11:13:02;;;;;;;34.38;24.38;;;12.50;99.90;;;;;;5134170;27;39535;-74
2021/11/20 11:16:10;;;;;;;33.33;23.17;;;12.60;99.90;;;;;;5134572;27;47571;-73
2021/11/20 11:18:45;;;;;;;30.33;22.38;;;12.50;99.90;;;;;;5120352;27;48484;-73
2021/11/20 11:21:26;;;;;;;30.38;22.58;;;12.50;99.90;;;;;;5132103;27;38177;-73
2021/11/20 11:24:20;;;;;;;33.33;23.58;;;12.50;99.90;;;;;;5137810;27;39205;-73
2021/11/20 11:26:57;;;;;;;33.85;23.55;;;12.50;99.90;;;;;;5133500;27;48944;-73
2021/11/20 11:29:36;;;;;;;34.13;24.70;;;12.50;99.90;;;;;;5139422;27;39035;-73
2021/11/20 11:32:04;;;;;;;29.10;22.15;;;12.50;99.90;;;;;;5139095;27;39036;-73
2021/11/20 11:34:59;;;;;;;35.05;24.65;;;12.50;99.90;;;;;;5146973;27;47325;-73
2021/11/20 11:37:40;;;;;;;29.55;21.33;;;12.40;99.90;;;;;;5135278;27;39337;-73
2021/11/20 11:40:27;;;;;;;28.83;20.38;;;12.40;99.90;;;;;;5151654;27;38559;-73
2021/11/20 11:43:26;;;;;;;30.08;22.42;;;12.40;99.90;;;;;;5157059;27;38162;-73
2021/11/20 11:45:57;;;;;;;34.17;23.25;;;12.50;99.90;;;;;;5135945;27;46827;-73
2021/11/20 11:48:57;;;;;;;28.05;21.02;;;12.50;99.90;;;;;;5157818;27;41965;-73
2021/11/20 11:51:29;;;;;;;30.38;22.75;;;12.40;99.90;;;;;;5148636;27;39234;-74
2021/11/20 11:54:19;;;;;;;28.13;20.85;;;12.40;99.90;;;;;;5149239;27;37239;-73
2021/11/20 11:57:15;;;;;;;30.15;21.90;;;12.50;99.90;;;;;;5132453;27;47255;-73
2021/11/20 11:59:47;;;;;;;28.17;21.30;;;12.40;99.90;;;;;;5090717;27;47985;-75
2021/11/20 12:02:18;;;;;;;28.33;20.38;;;12.40;99.90;;;;;;5153293;27;38135;-75
2021/11/20 12:04:56;;;;;;;28.83;21.48;;;12.30;99.90;;;;;;5150476;27;37553;-74
2021/11/20 12:07:27;;;;;;;30.38;22.50;;;12.40;99.90;;;;;;5118402;27;39681;-72
2021/11/20 12:10:22;;;;;;;30.35;21.65;;;12.30;99.90;;;;;;5139353;27;38885;-73
2021/11/20 12:13:11;;;;;;;30.13;21.20;;;12.30;99.90;;;;;;5122242;27;47114;-74
2021/11/20 12:15:46;;;;;;;34.00;22.38;;;12.20;99.90;;;;;;5137465;27;48615;-74
2021/11/20 12:18:36;;;;;;;30.63;21.55;;;12.20;99.90;;;;;;5134140;27;38541;-75
2021/11/20 12:21:27;;;;;;;29.15;20.67;;;12.20;99.90;;;;;;5119974;27;38909;-74
2021/11/20 12:24:35;;;;;;;30.55;22.20;;;12.20;99.90;;;;;;5128866;27;38057;-74
2021/11/20 12:27:25;;;;;;;29.42;20.75;;;12.20;99.90;;;;;;5121525;27;47095;-74
2021/11/20 12:30:26;;;;;;;30.85;20.90;;;12.20;99.90;;;;;;5132969;27;48364;-74
2021/11/20 12:33:01;;;;;;;30.73;21.88;;;12.20;99.90;;;;;;5131502;27;48710;-75
2021/11/20 12:35:53;;;;;;;29.27;21.90;;;12.20;99.90;;;;;;5131379;27;47294;-73
2021/11/20 12:38:38;;;;;;;28.92;20.95;;;12.20;99.90;;;;;;5132188;27;37531;-74
2021/11/20 12:41:19;;;;;;;28.27;20.98;;;12.10;99.90;;;;;;5133953;27;39503;-73
2021/11/20 12:44:08;;;;;;;29.25;21.33;;;12.10;99.90;;;;;;5124121;27;39461;-74
2021/11/20 12:47:01;;;;;;;28.05;21.60;;;12.10;99.90;;;;;;5128330;27;47129;-73
2021/11/20 12:49:46;;;;;;;29.13;21.98;;;12.00;99.90;;;;;;5125838;27;47475;-74
2021/11/20 12:52:36;;;;;;;27.13;21.90;;;12.00;99.90;;;;;;5131505;27;39896;-73
2021/11/20 12:55:31;;;;;;;32.72;22.10;;;12.00;99.90;;;;;;5135576;27;39007;-74
2021/11/20 12:58:31;;;;;;;27.70;22.20;;;12.00;99.90;;;;;;5090678;27;47392;-73